createdAt,value
2018-03-17T00:02:24.772Z,99099.23
2018-03-17T00:04:51.101Z,99105.15
2018-03-17T00:07:17.448Z,99099.95
2018-03-17T00:09:43.786Z,99089.38
2018-03-17T00:12:10.078Z,99080.84
2018-03-17T00:14:36.383Z,99081.38
2018-03-17T00:17:03.414Z,99084.94
2018-03-17T00:19:29.719Z,99081.44
2018-03-17T00:21:56.029Z,99087.00
2018-03-17T00:24:22.365Z,99089.58
2018-03-17T00:26:48.677Z,99093.29
2018-03-17T00:29:14.943Z,99108.20
2018-03-17T00:31:41.279Z,99112.88
2018-03-17T00:34:07.531Z,99105.33
2018-03-17T00:36:34.583Z,99114.47
2018-03-17T00:39:00.882Z,99120.09
2018-03-17T00:41:27.213Z,99120.92
2018-03-17T00:43:53.535Z,99129.12
2018-03-17T00:46:19.787Z,99127.73
2018-03-17T00:48:46.094Z,99132.27
2018-03-17T00:51:12.384Z,99128.98
2018-03-17T00:53:39.434Z,99131.20
2018-03-17T00:56:06.512Z,99123.89
2018-03-17T00:58:32.806Z,99142.28
2018-03-17T01:00:59.917Z,99149.33
2018-03-17T01:03:26.225Z,99147.65
2018-03-17T01:05:52.525Z,99137.88
2018-03-17T01:08:19.876Z,99132.60
2018-03-17T01:10:46.956Z,99136.59
2018-03-17T01:13:13.379Z,99140.78
2018-03-17T01:15:39.745Z,99132.52
2018-03-17T01:18:06.074Z,99138.69
2018-03-17T01:20:32.380Z,99125.33
2018-03-17T01:22:58.699Z,99124.67
2018-03-17T01:25:25.012Z,99123.27
2018-03-17T01:27:52.007Z,99133.54
2018-03-17T01:30:18.352Z,99129.05
2018-03-17T01:32:44.659Z,99134.80
2018-03-17T01:35:10.935Z,99128.95
2018-03-17T01:37:37.268Z,99135.73
2018-03-17T01:40:03.582Z,99135.25
2018-03-17T01:42:29.899Z,99133.78
2018-03-17T01:44:56.204Z,99137.31
2018-03-17T01:47:22.504Z,99137.70
2018-03-17T01:49:49.532Z,99138.84
2018-03-17T01:52:15.902Z,99133.78
2018-03-17T01:54:42.173Z,99124.16
2018-03-17T01:57:08.564Z,99135.19
2018-03-17T01:59:34.852Z,99135.48
2018-03-17T02:02:01.178Z,99137.70
2018-03-17T02:04:27.520Z,99126.38
2018-03-17T02:06:54.537Z,99124.10
2018-03-17T02:09:20.853Z,99113.41
2018-03-17T02:11:47.199Z,99121.05
2018-03-17T02:14:13.525Z,99129.41
2018-03-17T02:16:39.871Z,99137.63
2018-03-17T02:19:06.184Z,99132.16
2018-03-17T02:21:32.520Z,99135.88
2018-03-17T02:23:58.800Z,99138.13
2018-03-17T02:26:25.827Z,99123.80
2018-03-17T02:28:52.876Z,99120.57
2018-03-17T02:31:19.209Z,99116.16
2018-03-17T02:33:45.514Z,99120.83
2018-03-17T02:36:11.873Z,99126.73
2018-03-17T02:38:38.156Z,99116.02
2018-03-17T02:41:04.448Z,99115.56
2018-03-17T02:43:31.470Z,99107.13
2018-03-17T02:45:57.753Z,99101.58
2018-03-17T02:48:24.041Z,99113.52
2018-03-17T02:50:50.401Z,99125.05
2018-03-17T02:53:16.689Z,99121.58
2018-03-17T02:55:42.997Z,99117.13
2018-03-17T02:58:09.360Z,99124.15
2018-03-17T03:00:35.706Z,99121.10
2018-03-17T03:03:02.776Z,99118.78
2018-03-17T03:05:29.055Z,99129.30
2018-03-17T03:07:55.384Z,99118.93
2018-03-17T03:10:21.693Z,99125.69
2018-03-17T03:12:47.999Z,99133.84
2018-03-17T03:15:15.076Z,99132.42
2018-03-17T03:17:41.425Z,99136.88
2018-03-17T03:20:07.734Z,99148.75
2018-03-17T03:22:34.032Z,99158.61
2018-03-17T03:25:01.078Z,99160.22
2018-03-17T03:27:28.136Z,99173.37
2018-03-17T03:29:54.481Z,99166.77
2018-03-17T03:32:20.753Z,99156.20
2018-03-17T03:34:48.087Z,99153.63
2018-03-17T03:37:14.391Z,99156.03
2018-03-17T03:39:40.705Z,99158.70
2018-03-17T03:42:07.709Z,99158.41
2018-03-17T03:44:33.995Z,99151.16
2018-03-17T03:47:00.267Z,99156.75
2018-03-17T03:49:26.595Z,99163.41
2018-03-17T03:51:53.009Z,99136.82
2018-03-17T03:54:19.341Z,99155.46
2018-03-17T03:56:45.682Z,99167.98
2018-03-17T03:59:12.025Z,99166.57
2018-03-17T04:01:38.316Z,99163.91
2018-03-17T04:04:04.682Z,99174.48
2018-03-17T04:06:30.995Z,99181.17
2018-03-17T04:08:57.352Z,99186.04
2018-03-17T04:11:23.676Z,99181.85
2018-03-17T04:13:49.979Z,99183.08
2018-03-17T04:16:16.273Z,99184.59
2018-03-17T04:18:43.368Z,99183.33
2018-03-17T04:21:09.700Z,99183.25
2018-03-17T04:23:36.024Z,99184.71
2018-03-17T04:26:02.744Z,99175.52
2018-03-17T04:28:29.792Z,99189.89
2018-03-17T04:30:56.906Z,99182.28
2018-03-17T04:33:23.206Z,99186.66
2018-03-17T04:35:49.487Z,99190.16
2018-03-17T04:38:16.535Z,99170.07
2018-03-17T04:40:43.614Z,99175.27
2018-03-17T04:43:09.919Z,99175.33
2018-03-17T04:45:37.132Z,99187.78
2018-03-17T04:48:04.454Z,99190.01
2018-03-17T04:50:30.800Z,99189.67
2018-03-17T04:52:57.129Z,99190.58
2018-03-17T04:55:23.401Z,99194.44
2018-03-17T04:57:49.715Z,99205.26
2018-03-17T05:00:16.047Z,99207.77
2018-03-17T05:02:42.335Z,99210.36
2018-03-17T05:05:08.638Z,99219.55
2018-03-17T05:07:35.640Z,99217.11
2018-03-17T05:10:02.047Z,99216.48
2018-03-17T05:12:28.324Z,99223.05
2018-03-17T05:14:55.415Z,99222.67
2018-03-17T05:17:21.724Z,99215.44
2018-03-17T05:19:48.004Z,99221.83
2018-03-17T05:22:14.329Z,99223.91
2018-03-17T05:24:40.621Z,99225.91
2018-03-17T05:27:07.653Z,99223.67
2018-03-17T05:29:33.939Z,99229.46
2018-03-17T05:32:00.249Z,99217.41
2018-03-17T05:34:26.539Z,99225.30
2018-03-17T05:36:52.913Z,99224.20
2018-03-17T05:39:19.257Z,99219.88
2018-03-17T05:41:46.294Z,99219.05
2018-03-17T05:44:12.645Z,99213.18
2018-03-17T05:46:38.923Z,99213.75
2018-03-17T05:49:05.235Z,99220.84
2018-03-17T05:51:31.575Z,99234.88
2018-03-17T05:53:58.662Z,99233.61
2018-03-17T05:56:24.946Z,99229.17
2018-03-17T05:58:51.290Z,99227.21
2018-03-17T06:01:17.602Z,99224.03
2018-03-17T06:03:43.913Z,99228.96
2018-03-17T06:06:10.266Z,99227.80
2018-03-17T06:08:36.580Z,99229.45
2018-03-17T06:11:02.923Z,99230.51
2018-03-17T06:13:29.271Z,99225.97
2018-03-17T06:15:55.617Z,99232.81
2018-03-17T06:18:22.646Z,99218.77
2018-03-17T06:20:48.904Z,99223.09
2018-03-17T06:23:15.907Z,99233.07
2018-03-17T06:25:42.188Z,99226.85
2018-03-17T06:28:09.216Z,99230.57
2018-03-17T06:30:36.308Z,99242.76
2018-03-17T06:33:03.283Z,99234.64
2018-03-17T06:35:29.562Z,99242.56
2018-03-17T06:37:56.600Z,99247.70
2018-03-17T06:40:23.644Z,99234.38
2018-03-17T06:42:50.724Z,99239.70
2018-03-17T06:45:17.048Z,99245.52
2018-03-17T06:47:43.382Z,99258.30
2018-03-17T06:50:09.683Z,99256.89
2018-03-17T06:52:35.979Z,99256.02
2018-03-17T06:55:02.307Z,99253.83
2018-03-17T06:57:28.673Z,99245.59
2018-03-17T06:59:55.692Z,99250.00
2018-03-17T07:02:22.031Z,99255.96
2018-03-17T07:04:48.319Z,99252.83
2018-03-17T07:07:15.528Z,99242.95
2018-03-17T07:09:41.830Z,99255.91
2018-03-17T07:12:08.115Z,99255.13
2018-03-17T07:14:34.431Z,99252.59
2018-03-17T07:17:01.475Z,99258.00
2018-03-17T07:19:28.539Z,99252.34
2018-03-17T07:21:55.572Z,99248.94
2018-03-17T07:24:22.582Z,99249.91
2018-03-17T07:26:48.916Z,99259.91
2018-03-17T07:29:15.219Z,99259.39
2018-03-17T07:31:41.616Z,99249.36
2018-03-17T07:34:08.691Z,99254.91
2018-03-17T07:36:35.008Z,99258.91
2018-03-17T07:39:02.098Z,99255.53
2018-03-17T07:41:28.435Z,99244.84
2018-03-17T07:43:54.712Z,99257.36
2018-03-17T07:46:21.723Z,99252.33
2018-03-17T07:48:48.012Z,99263.72
2018-03-17T07:51:14.314Z,99260.31
2018-03-17T07:53:41.346Z,99260.92
2018-03-17T07:56:07.700Z,99257.55
2018-03-17T07:58:34.758Z,99265.29
2018-03-17T08:01:01.768Z,99263.91
2018-03-17T08:03:28.090Z,99271.88
2018-03-17T08:05:54.473Z,99263.55
2018-03-17T08:08:20.803Z,99263.70
2018-03-17T08:10:47.312Z,99268.05
2018-03-17T08:13:13.613Z,99270.20
2018-03-17T08:15:39.949Z,99272.44
2018-03-17T08:18:06.296Z,99271.52
2018-03-17T08:20:32.569Z,99262.32
2018-03-17T08:22:58.837Z,99273.84
2018-03-17T08:25:25.253Z,99269.50
2018-03-17T08:27:51.744Z,99273.04
2018-03-17T08:30:18.802Z,99265.36
2018-03-17T08:32:45.092Z,99259.17
2018-03-17T08:35:11.420Z,99253.09
2018-03-17T08:37:37.732Z,99266.44
2018-03-17T08:40:04.038Z,99264.94
2018-03-17T08:42:30.306Z,99260.35
2018-03-17T08:44:56.621Z,99253.67
2018-03-17T08:47:22.959Z,99255.26
2018-03-17T08:49:49.313Z,99258.00
2018-03-17T08:52:17.201Z,99255.02
2018-03-17T08:54:44.300Z,99255.66
2018-03-17T08:57:10.601Z,99245.84
2018-03-17T08:59:36.883Z,99248.27
2018-03-17T09:02:03.281Z,99250.05
2018-03-17T09:04:29.581Z,99242.80
2018-03-17T09:06:56.634Z,99244.87
2018-03-17T09:09:23.707Z,99256.89
2018-03-17T09:11:49.982Z,99257.70
2018-03-17T09:14:16.271Z,99262.88
2018-03-17T09:16:42.608Z,99260.44
2018-03-17T09:19:08.976Z,99258.11
2018-03-17T09:21:36.886Z,99262.20
2018-03-17T09:24:03.758Z,99263.54
2018-03-17T09:26:30.084Z,99270.41
2018-03-17T09:28:56.408Z,99263.56
2018-03-17T09:31:22.733Z,99272.21
2018-03-17T09:33:49.027Z,99264.03
2018-03-17T09:36:15.361Z,99271.38
2018-03-17T09:38:43.273Z,99267.95
2018-03-17T09:41:09.562Z,99277.32
2018-03-17T09:43:36.691Z,99280.33
2018-03-17T09:46:03.007Z,99281.33
2018-03-17T09:48:29.312Z,99281.29
2018-03-17T09:50:55.683Z,99279.89
2018-03-17T09:53:22.097Z,99271.72
2018-03-17T09:55:48.966Z,99279.97
2018-03-17T09:58:15.377Z,99275.05
2018-03-17T10:00:41.712Z,99277.28
2018-03-17T10:03:08.183Z,99284.89
2018-03-17T10:05:35.253Z,99276.05
2018-03-17T10:08:01.581Z,99279.05
2018-03-17T10:10:27.916Z,99268.38
2018-03-17T10:12:54.306Z,99275.45
2018-03-17T10:15:20.599Z,99271.58
2018-03-17T10:17:46.910Z,99283.78
2018-03-17T10:20:13.216Z,99274.42
2018-03-17T10:22:40.292Z,99278.13
2018-03-17T10:25:06.617Z,99279.95
2018-03-17T10:27:33.677Z,99279.13
2018-03-17T10:30:00.039Z,99280.97
2018-03-17T10:32:26.336Z,99284.62
2018-03-17T10:34:52.629Z,99281.91
2018-03-17T10:37:18.999Z,99276.00
2018-03-17T10:39:45.376Z,99283.91
2018-03-17T10:42:11.645Z,99278.60
2018-03-17T10:44:38.666Z,99273.53
2018-03-17T10:47:04.958Z,99272.70
2018-03-17T10:49:31.270Z,99268.80
2018-03-17T10:51:57.592Z,99272.47
2018-03-17T10:54:23.924Z,99273.45
2018-03-17T10:56:50.272Z,99273.42
2018-03-17T10:59:16.625Z,99276.89
2018-03-17T11:01:42.933Z,99265.16
2018-03-17T11:04:09.244Z,99267.95
2018-03-17T11:06:36.315Z,99275.84
2018-03-17T11:09:02.620Z,99268.22
2018-03-17T11:11:28.905Z,99265.47
2018-03-17T11:13:55.254Z,99258.56
2018-03-17T11:16:21.753Z,99271.97
2018-03-17T11:18:48.119Z,99267.73
2018-03-17T11:21:14.446Z,99270.56
2018-03-17T11:23:40.810Z,99268.33
2018-03-17T11:26:07.879Z,99261.42
2018-03-17T11:28:34.216Z,99260.00
2018-03-17T11:31:00.559Z,99255.56
2018-03-17T11:33:26.879Z,99251.85
2018-03-17T11:35:54.324Z,99258.27
2018-03-17T11:38:20.717Z,99257.09
2018-03-17T11:40:47.002Z,99249.62
2018-03-17T11:43:13.319Z,99251.75
2018-03-17T11:45:39.638Z,99246.91
2018-03-17T11:48:06.711Z,99228.92
2018-03-17T11:50:33.038Z,99238.70
2018-03-17T11:52:59.412Z,99248.16
2018-03-17T11:55:25.696Z,99239.58
2018-03-17T11:57:52.048Z,99239.20
2018-03-17T12:00:18.413Z,99247.64
2018-03-17T12:02:44.765Z,99241.13
2018-03-17T12:05:11.927Z,99247.52
2018-03-17T12:07:38.977Z,99245.96
2018-03-17T12:10:05.299Z,99250.59
2018-03-17T12:12:31.681Z,99244.74
2018-03-17T12:14:57.973Z,99251.49
2018-03-17T12:17:25.045Z,99246.61
2018-03-17T12:19:51.374Z,99247.78
2018-03-17T12:22:17.828Z,99250.33
2018-03-17T12:24:44.136Z,99242.72
2018-03-17T12:27:10.449Z,99244.30
2018-03-17T12:29:36.788Z,99248.39
2018-03-17T12:32:03.114Z,99244.06
2018-03-17T12:34:29.465Z,99235.77
2018-03-17T12:36:55.792Z,99237.97
2018-03-17T12:39:22.178Z,99226.55
2018-03-17T12:41:48.472Z,99227.95
2018-03-17T12:44:15.021Z,99237.84
2018-03-17T12:46:41.385Z,99238.86
2018-03-17T12:49:07.708Z,99242.17
2018-03-17T12:51:34.077Z,99238.63
2018-03-17T12:54:00.488Z,99240.61
2018-03-17T12:56:27.528Z,99244.90
2018-03-17T12:58:54.662Z,99246.91
2018-03-17T13:01:21.113Z,99242.73
2018-03-17T13:03:48.374Z,99241.69
2018-03-17T13:06:15.501Z,99243.55
2018-03-17T13:08:41.848Z,99242.70
2018-03-17T13:11:08.887Z,99242.00
2018-03-17T13:13:36.699Z,99244.80
2018-03-17T13:16:03.023Z,99237.26
2018-03-17T13:18:29.349Z,99240.06
2018-03-17T13:20:55.681Z,99234.44
2018-03-17T13:23:22.017Z,99240.66
2018-03-17T13:25:48.354Z,99240.42
2018-03-17T13:28:35.727Z,99245.33
2018-03-17T13:31:02.062Z,99245.58
2018-03-17T13:33:29.148Z,99241.55
2018-03-17T13:36:14.192Z,99248.02
2018-03-17T13:38:40.556Z,99233.70
2018-03-17T13:41:06.860Z,99238.02
2018-03-17T13:43:33.967Z,99236.91
2018-03-17T13:46:00.294Z,99244.03
2018-03-17T13:48:26.770Z,99238.95
2018-03-17T13:50:53.828Z,99241.68
2018-03-17T13:53:20.936Z,99230.53
2018-03-17T13:55:47.251Z,99238.80
2018-03-17T13:58:13.621Z,99240.05
2018-03-17T14:00:40.017Z,99234.21
2018-03-17T14:03:06.361Z,99240.97
2018-03-17T14:05:32.729Z,99235.35
2018-03-17T14:07:59.894Z,99238.41
2018-03-17T14:10:27.001Z,99235.25
2018-03-17T14:12:53.366Z,99237.41
2018-03-17T14:15:21.259Z,99223.84
2018-03-17T14:17:47.597Z,99238.23
2018-03-17T14:20:13.958Z,99241.34
2018-03-17T14:22:40.374Z,99236.83
2018-03-17T14:25:06.730Z,99239.83
2018-03-17T14:27:33.168Z,99237.27
2018-03-17T14:29:59.638Z,99238.22
2018-03-17T14:32:26.716Z,99248.58
2018-03-17T14:34:53.088Z,99246.98
2018-03-17T14:37:19.478Z,99246.95
2018-03-17T14:39:45.808Z,99242.05
2018-03-17T14:42:12.121Z,99243.38
2018-03-17T14:44:38.460Z,99235.47
2018-03-17T14:47:05.107Z,99239.43
2018-03-17T14:49:31.495Z,99239.88
2018-03-17T14:51:57.829Z,99243.48
2018-03-17T14:54:24.149Z,99248.08
2018-03-17T14:56:50.805Z,99249.47
2018-03-17T14:59:17.883Z,99248.23
2018-03-17T15:01:44.205Z,99244.16
2018-03-17T15:04:10.548Z,99241.67
2018-03-17T15:06:36.870Z,99237.09
2018-03-17T15:09:03.290Z,99240.67
2018-03-17T15:11:30.469Z,99244.11
2018-03-17T15:13:56.902Z,99229.02
2018-03-17T15:16:23.222Z,99254.18
2018-03-17T15:18:49.554Z,99253.50
2018-03-17T15:21:15.920Z,99240.72
2018-03-17T15:23:42.242Z,99239.81
2018-03-17T15:26:08.678Z,99236.45
2018-03-17T15:28:35.007Z,99249.20
2018-03-17T15:31:01.665Z,99246.19
2018-03-17T15:33:28.026Z,99228.14
2018-03-17T15:35:54.371Z,99239.41
2018-03-17T15:38:21.527Z,99238.89
2018-03-17T15:40:48.677Z,99249.55
2018-03-17T15:43:15.861Z,99249.48
2018-03-17T15:45:42.240Z,99247.68
2018-03-17T15:48:09.308Z,99243.50
2018-03-17T15:50:35.779Z,99242.98
2018-03-17T15:53:02.222Z,99252.27
2018-03-17T15:55:28.747Z,99247.89
2018-03-17T15:57:55.152Z,99251.69
2018-03-17T16:00:21.585Z,99244.36
2018-03-17T16:02:48.039Z,99249.67
2018-03-17T16:05:14.370Z,99250.12
2018-03-17T16:07:40.729Z,99253.84
2018-03-17T16:10:07.039Z,99256.97
2018-03-17T16:12:33.339Z,99259.33
2018-03-17T16:14:59.639Z,99233.17
2018-03-17T16:17:26.089Z,99248.95
2018-03-17T16:19:53.231Z,99246.73
2018-03-17T16:22:20.391Z,99255.73
2018-03-17T16:24:46.765Z,99248.27
2018-03-17T16:27:13.109Z,99255.25
2018-03-17T16:29:39.488Z,99248.16
2018-03-17T16:32:06.624Z,99259.30
2018-03-17T16:34:33.724Z,99253.13
2018-03-17T16:37:00.103Z,99252.39
2018-03-17T16:39:27.236Z,99259.16
2018-03-17T16:41:53.602Z,99260.17
2018-03-17T16:44:20.672Z,99257.05
2018-03-17T16:46:47.249Z,99264.67
2018-03-17T16:49:13.704Z,99269.35
2018-03-17T16:51:40.068Z,99270.33
2018-03-17T16:54:07.138Z,99272.61
2018-03-17T16:56:33.481Z,99269.02
2018-03-17T16:58:59.849Z,99271.12
2018-03-17T17:01:26.190Z,99278.98
2018-03-17T17:03:53.542Z,99276.76
2018-03-17T17:06:19.873Z,99285.37
2018-03-17T17:08:46.318Z,99294.16
2018-03-17T17:11:12.700Z,99297.12
2018-03-17T17:13:39.012Z,99296.48
2018-03-17T17:16:05.304Z,99300.97
2018-03-17T17:18:31.674Z,99306.73
2018-03-17T17:20:57.976Z,99308.11
2018-03-17T17:23:26.124Z,99308.70
2018-03-17T17:25:52.475Z,99308.31
2018-03-17T17:28:19.592Z,99312.71
2018-03-17T17:30:45.918Z,99313.16
2018-03-17T17:33:12.285Z,99311.39
2018-03-17T17:35:38.641Z,99308.47
2018-03-17T17:38:05.758Z,99310.80
2018-03-17T17:40:32.806Z,99305.20
2018-03-17T17:42:59.854Z,99306.69
2018-03-17T17:45:26.134Z,99314.37
2018-03-17T17:47:52.432Z,99303.34
2018-03-17T17:50:19.428Z,99317.05
2018-03-17T17:52:45.724Z,99296.13
2018-03-17T17:55:12.790Z,99307.41
2018-03-17T17:57:39.139Z,99307.10
2018-03-17T18:00:05.484Z,99307.05
2018-03-17T18:02:31.813Z,99313.04
2018-03-17T18:04:58.120Z,99315.73
2018-03-17T18:07:24.381Z,99301.17
2018-03-17T18:09:50.672Z,99309.72
2018-03-17T18:12:16.948Z,99306.72
2018-03-17T18:14:43.224Z,99315.13
2018-03-17T18:17:09.580Z,99313.25
2018-03-17T18:19:35.873Z,99320.22
2018-03-17T18:22:02.953Z,99324.84
2018-03-17T18:24:30.082Z,99326.64
2018-03-17T18:26:56.428Z,99333.59
2018-03-17T18:29:22.780Z,99333.15
2018-03-17T18:31:49.105Z,99334.60
2018-03-17T18:34:15.392Z,99333.31
2018-03-17T18:36:42.439Z,99327.95
2018-03-17T18:39:09.574Z,99329.95
2018-03-17T18:41:38.356Z,99327.88
2018-03-17T18:44:04.654Z,99340.44
2018-03-17T18:46:32.044Z,99337.78
2018-03-17T18:48:58.464Z,99345.99
2018-03-17T18:51:24.875Z,99346.50
2018-03-17T18:53:51.313Z,99346.51
2018-03-17T18:56:17.639Z,99341.18
2018-03-17T18:58:43.937Z,99344.15
2018-03-17T19:01:11.839Z,99353.72
2018-03-17T19:03:38.193Z,99353.09
2018-03-17T19:06:04.541Z,99339.69
2018-03-17T19:08:30.849Z,99350.02
2018-03-17T19:10:57.323Z,99352.78
2018-03-17T19:13:24.895Z,99355.42
2018-03-17T19:15:52.094Z,99346.94
2018-03-17T19:18:18.392Z,99345.70
2018-03-17T19:20:44.924Z,99358.84
2018-03-17T19:23:11.324Z,99349.80
2018-03-17T19:25:37.720Z,99361.92
2018-03-17T19:28:04.994Z,99353.44
2018-03-17T19:30:31.378Z,99362.80
2018-03-17T19:32:57.729Z,99351.16
2018-03-17T19:35:24.052Z,99351.58
2018-03-17T19:37:50.394Z,99350.92
2018-03-17T19:40:16.683Z,99349.12
2018-03-17T19:42:43.747Z,99349.57
2018-03-17T19:45:10.155Z,99347.14
2018-03-17T19:47:36.502Z,99345.98
2018-03-17T19:50:02.893Z,99336.55
2018-03-17T19:52:29.191Z,99330.05
2018-03-17T19:54:55.604Z,99337.59
2018-03-17T19:57:21.922Z,99328.98
2018-03-17T19:59:48.976Z,99322.05
2018-03-17T20:02:16.027Z,99332.84
2018-03-17T20:04:43.146Z,99338.83
2018-03-17T20:07:09.484Z,99343.53
2018-03-17T20:09:36.589Z,99339.14
2018-03-17T20:12:02.892Z,99350.88
2018-03-17T20:14:29.196Z,99348.70
2018-03-17T20:16:57.257Z,99361.59
2018-03-17T20:19:23.571Z,99355.05
2018-03-17T20:21:49.879Z,99354.42
2018-03-17T20:24:16.212Z,99354.20
2018-03-17T20:26:42.515Z,99351.65
2018-03-17T20:29:08.896Z,99356.08
2018-03-17T20:31:35.188Z,99354.98
2018-03-17T20:34:01.491Z,99352.87
2018-03-17T20:36:28.515Z,99353.36
2018-03-17T20:38:54.884Z,99346.07
2018-03-17T20:41:21.939Z,99358.42
2018-03-17T20:43:48.986Z,99351.98
2018-03-17T20:46:16.058Z,99365.41
2018-03-17T20:48:42.360Z,99356.61
2018-03-17T20:51:09.884Z,99365.34
2018-03-17T20:53:36.207Z,99358.94
2018-03-17T20:56:02.533Z,99359.94
2018-03-17T20:58:28.837Z,99364.02
2018-03-17T21:00:55.152Z,99361.28
2018-03-17T21:03:21.533Z,99361.22
2018-03-17T21:05:47.889Z,99361.64
2018-03-17T21:08:14.982Z,99363.75
2018-03-17T21:10:41.342Z,99360.20
2018-03-17T21:13:07.647Z,99353.89
2018-03-17T21:15:34.019Z,99357.70
2018-03-17T21:18:00.333Z,99352.35
2018-03-17T21:20:26.671Z,99350.11
2018-03-17T21:22:53.034Z,99364.59
2018-03-17T21:25:20.064Z,99355.97
2018-03-17T21:27:46.356Z,99359.49
2018-03-17T21:30:12.716Z,99354.69
2018-03-17T21:32:39.047Z,99360.34
2018-03-17T21:35:05.632Z,99347.23
2018-03-17T21:37:31.908Z,99353.69
2018-03-17T21:39:58.251Z,99346.28
2018-03-17T21:42:24.610Z,99350.39
2018-03-17T21:44:51.745Z,99340.52
2018-03-17T21:47:18.866Z,99349.15
2018-03-17T21:49:45.171Z,99345.16
2018-03-17T21:52:11.631Z,99353.72
2018-03-17T21:54:38.097Z,99350.62
2018-03-17T21:57:05.164Z,99337.84
2018-03-17T21:59:32.281Z,99346.95
2018-03-17T22:01:58.520Z,99342.96
2018-03-17T22:04:24.815Z,99339.17
2018-03-17T22:06:51.169Z,99328.73
2018-03-17T22:09:17.445Z,99333.90
2018-03-17T22:11:43.723Z,99335.80
2018-03-17T22:14:10.036Z,99346.19
2018-03-17T22:16:36.367Z,99344.52
2018-03-17T22:19:02.703Z,99346.33
2018-03-17T22:21:28.995Z,99347.07
2018-03-17T22:23:55.297Z,99354.38
2018-03-17T22:26:21.632Z,99352.84
2018-03-17T22:28:48.668Z,99350.64
2018-03-17T22:31:15.272Z,99354.71
2018-03-17T22:33:41.601Z,99341.28
2018-03-17T22:36:07.928Z,99353.49
2018-03-17T22:38:34.812Z,99351.36
2018-03-17T22:41:01.222Z,99346.42
2018-03-17T22:43:27.486Z,99355.24
2018-03-17T22:45:53.782Z,99351.89
2018-03-17T22:48:20.062Z,99348.31
2018-03-17T22:50:47.111Z,99356.05
2018-03-17T22:53:14.171Z,99363.31
2018-03-17T22:55:40.531Z,99355.30
2018-03-17T22:58:06.840Z,99348.31
2018-03-17T23:00:33.158Z,99356.14
2018-03-17T23:02:59.451Z,99357.77
2018-03-17T23:05:25.815Z,99359.16
2018-03-17T23:07:52.138Z,99359.61
2018-03-17T23:10:18.475Z,99362.22
2018-03-17T23:12:45.518Z,99361.72
2018-03-17T23:15:11.853Z,99367.49
2018-03-17T23:17:38.132Z,99378.69
2018-03-17T23:20:04.439Z,99362.84
2018-03-17T23:22:30.751Z,99374.27
2018-03-17T23:24:57.823Z,99374.89
2018-03-17T23:27:24.178Z,99375.66
2018-03-17T23:29:50.526Z,99381.72
2018-03-17T23:32:17.374Z,99360.16
2018-03-17T23:34:44.270Z,99386.53
2018-03-17T23:37:10.576Z,99378.16
2018-03-17T23:39:37.671Z,99382.22
2018-03-17T23:42:03.967Z,99386.77
2018-03-17T23:44:30.977Z,99392.70
2018-03-17T23:46:57.299Z,99389.71
2018-03-17T23:49:23.634Z,99402.03
2018-03-17T23:51:49.937Z,99380.18
2018-03-17T23:54:16.218Z,99380.91
2018-03-17T23:56:43.269Z,99388.06
2018-03-17T23:59:10.339Z,99396.09
